Terminal Aerodrome Forecast
Issued by NWS Flagstaff, AZ

Home | Current Version | Previous Version | Text Only | Print | Product List | Glossary On
Versions: 1 2 3 4 5 6 7 8 9 10 11 12 13 14 15 16 17 18 19 20 21 22 23
789
FTUS45 KFGZ 162332
TAFINW
TAF
KINW 162332Z 1700/1724 32010KT P6SM SCT025 BKN035
     FM170500 VRB05KT P6SM FEW025 OVC040
      TEMPO 1709/1713 BKN025 OVC040
     FM171700 VRB05KT P6SM SCT040 BKN060=

USA.gov is the U.S. government's official web portal to all federal, state and local government web resources and services.